createdAt,value
2019-03-24T00:00:45.834Z,5.10
2019-03-24T00:05:49.864Z,5.23
2019-03-24T00:10:53.867Z,5.03
2019-03-24T00:15:57.802Z,4.77
2019-03-24T00:21:01.817Z,5.23
2019-03-24T00:26:05.822Z,5.00
2019-03-24T00:31:09.860Z,4.80
2019-03-24T00:36:13.856Z,4.50
2019-03-24T00:41:17.859Z,4.90
2019-03-24T00:46:21.884Z,4.93
2019-03-24T00:51:25.886Z,5.00
2019-03-24T00:56:29.982Z,5.07
2019-03-24T01:01:33.982Z,5.77
2019-03-24T01:06:37.984Z,4.20
2019-03-24T01:11:42.006Z,4.73
2019-03-24T01:16:45.934Z,4.30
2019-03-24T01:21:49.859Z,4.87
2019-03-24T01:26:53.866Z,5.30
2019-03-24T01:31:57.914Z,5.53
2019-03-24T01:37:01.934Z,4.97
2019-03-24T01:42:05.876Z,5.77
2019-03-24T01:47:09.870Z,5.13
2019-03-24T01:52:13.860Z,5.53
2019-03-24T01:57:17.782Z,4.77
2019-03-24T02:02:21.712Z,5.13
2019-03-24T02:07:25.699Z,5.13
2019-03-24T02:12:29.701Z,5.50
2019-03-24T02:17:33.683Z,5.07
2019-03-24T02:22:37.666Z,5.10
2019-03-24T02:27:41.751Z,5.10
2019-03-24T02:32:45.735Z,5.17
2019-03-24T02:37:49.731Z,5.30
2019-03-24T02:42:53.654Z,5.67
2019-03-24T02:47:57.678Z,5.57
2019-03-24T02:53:01.589Z,6.03
2019-03-24T02:58:05.524Z,5.13
2019-03-24T03:03:09.439Z,5.67
2019-03-24T03:08:13.335Z,5.60
2019-03-24T03:13:17.239Z,5.80
2019-03-24T03:18:21.167Z,5.67
2019-03-24T03:23:26.087Z,6.37
2019-03-24T03:28:30.068Z,5.77
2019-03-24T03:33:34.120Z,5.83
2019-03-24T03:38:38.192Z,5.47
2019-03-24T03:43:42.207Z,5.73
2019-03-24T03:48:46.167Z,6.03
2019-03-24T03:53:50.097Z,5.40
2019-03-24T03:58:54.113Z,6.13
2019-03-24T04:03:58.096Z,6.73
2019-03-24T04:09:02.096Z,7.30
2019-03-24T04:14:06.082Z,7.27
2019-03-24T04:19:10.026Z,8.93
2019-03-24T04:24:14.008Z,8.13
2019-03-24T04:29:18.097Z,9.50
2019-03-24T04:34:22.076Z,12.20
2019-03-24T04:39:26.021Z,13.33
2019-03-24T04:44:29.960Z,14.40
2019-03-24T04:49:33.919Z,16.70
2019-03-24T04:54:37.913Z,17.93
2019-03-24T04:59:41.799Z,17.63
2019-03-24T05:04:45.786Z,16.23
2019-03-24T05:09:50.213Z,16.03
2019-03-24T05:14:54.218Z,16.70
2019-03-24T05:19:58.145Z,16.90
2019-03-24T05:25:02.064Z,15.63
2019-03-24T05:30:06.096Z,15.60
2019-03-24T05:35:10.199Z,14.70
2019-03-24T05:40:14.237Z,15.40
2019-03-24T05:45:18.194Z,16.07
2019-03-24T05:50:22.136Z,15.00
2019-03-24T05:55:26.128Z,16.30
2019-03-24T06:00:30.139Z,15.60
2019-03-24T06:05:34.038Z,14.93
2019-03-24T06:10:38.060Z,15.63
2019-03-24T06:15:42.030Z,14.63
2019-03-24T06:20:46.030Z,14.07
2019-03-24T06:25:50.036Z,14.47
2019-03-24T06:30:54.020Z,14.43
2019-03-24T06:35:58.043Z,14.60
2019-03-24T06:41:02.038Z,13.07
2019-03-24T06:46:06.550Z,14.87
2019-03-24T06:51:10.492Z,15.43
2019-03-24T06:56:14.426Z,17.03
2019-03-24T07:01:18.357Z,15.87
2019-03-24T07:06:22.339Z,15.80
2019-03-24T07:11:26.279Z,15.07
2019-03-24T07:16:30.205Z,18.40
2019-03-24T07:21:34.108Z,17.50
2019-03-24T07:26:38.097Z,17.13
2019-03-24T07:31:42.093Z,18.07
2019-03-24T07:36:46.101Z,17.40
2019-03-24T07:41:51.103Z,18.23
2019-03-24T07:46:55.425Z,15.80
2019-03-24T07:51:59.387Z,13.27
2019-03-24T07:57:03.392Z,9.83
2019-03-24T08:02:08.202Z,9.83
2019-03-24T08:07:12.947Z,9.48
2019-03-24T08:12:17.756Z,11.25
2019-03-24T08:17:22.471Z,10.38
2019-03-24T08:22:27.246Z,9.98
2019-03-24T08:27:32.016Z,9.80
2019-03-24T08:32:36.742Z,10.43
2019-03-24T08:37:41.574Z,11.28
2019-03-24T08:42:46.316Z,11.10
2019-03-24T08:47:51.029Z,13.45
2019-03-24T08:52:56.302Z,12.70
2019-03-24T08:58:01.037Z,13.68
2019-03-24T09:03:05.806Z,19.90
2019-03-24T09:08:10.522Z,26.60
2019-03-24T09:13:15.306Z,25.72
2019-03-24T09:18:20.070Z,22.85
2019-03-24T09:23:24.844Z,21.27
2019-03-24T09:28:30.741Z,18.75
2019-03-24T09:33:35.507Z,20.23
2019-03-24T09:38:40.247Z,22.20
2019-03-24T09:43:44.987Z,14.53
2019-03-24T09:48:49.786Z,13.40
2019-03-24T09:53:54.657Z,14.00
2019-03-24T09:58:59.388Z,16.50
2019-03-24T10:04:04.178Z,13.95
2019-03-24T10:09:08.206Z,14.93
2019-03-24T10:14:12.983Z,15.78
2019-03-24T10:19:17.740Z,12.82
2019-03-24T10:24:22.487Z,13.62
2019-03-24T10:29:27.225Z,14.38
2019-03-24T10:34:31.980Z,14.70
2019-03-24T10:39:36.732Z,16.07
2019-03-24T10:44:41.477Z,15.72
2019-03-24T10:49:46.309Z,15.00
2019-03-24T10:54:51.114Z,16.40
2019-03-24T10:59:55.845Z,15.18
2019-03-24T11:05:00.668Z,14.23
2019-03-24T11:10:05.924Z,15.78
2019-03-24T11:15:11.399Z,15.15
2019-03-24T11:20:15.356Z,13.53
2019-03-24T11:25:20.068Z,13.58
2019-03-24T11:30:24.805Z,13.38
2019-03-24T11:35:29.551Z,13.85
2019-03-24T11:40:34.667Z,12.13
2019-03-24T11:45:39.469Z,13.32
2019-03-24T11:50:44.327Z,12.95
2019-03-24T11:55:49.068Z,13.18
2019-03-24T12:00:53.780Z,12.50
2019-03-24T12:05:58.617Z,12.40
2019-03-24T12:11:03.584Z,11.75
2019-03-24T12:16:08.503Z,11.05
2019-03-24T12:21:13.348Z,10.40
2019-03-24T12:26:18.301Z,10.32
2019-03-24T12:31:23.063Z,10.23
2019-03-24T12:36:27.875Z,9.93
2019-03-24T12:41:32.706Z,10.40
2019-03-24T12:46:37.552Z,9.13
2019-03-24T12:51:42.418Z,9.53
2019-03-24T12:56:47.248Z,9.25
2019-03-24T13:01:52.929Z,10.38
2019-03-24T13:06:57.038Z,12.23
2019-03-24T13:12:02.139Z,12.23
2019-03-24T13:17:07.919Z,11.83
2019-03-24T13:22:12.748Z,8.83
2019-03-24T13:27:17.491Z,7.33
2019-03-24T13:32:22.297Z,6.78
2019-03-24T13:37:27.042Z,7.95
2019-03-24T13:46:29.549Z,5.00
2019-03-24T13:51:34.340Z,4.35
2019-03-24T13:56:39.292Z,2.80
2019-03-24T14:01:44.065Z,2.30
2019-03-24T14:06:48.804Z,2.45
2019-03-24T14:11:53.518Z,2.25
2019-03-24T14:16:58.347Z,2.15
2019-03-24T14:22:03.152Z,1.98
2019-03-24T14:27:07.930Z,2.10
2019-03-24T14:32:12.796Z,2.30
2019-03-24T14:37:17.560Z,2.27
2019-03-24T14:42:21.582Z,2.70
2019-03-24T14:47:25.623Z,3.50
2019-03-24T14:52:29.663Z,3.40
2019-03-24T14:57:34.408Z,3.33
2019-03-24T15:02:40.854Z,3.52
2019-03-24T15:07:45.589Z,4.33
2019-03-24T15:12:50.380Z,3.30
2019-03-24T15:17:55.225Z,2.80
2019-03-24T15:22:59.955Z,2.55
2019-03-24T15:28:04.719Z,2.10
2019-03-24T15:33:09.527Z,2.20
2019-03-24T15:38:14.321Z,1.27
2019-03-24T15:43:19.265Z,1.10
2019-03-24T15:48:23.973Z,1.37
2019-03-24T15:53:28.723Z,1.80
2019-03-24T15:58:33.473Z,2.20
2019-03-24T16:03:38.203Z,3.37
2019-03-24T16:08:44.476Z,4.00
2019-03-24T16:13:49.491Z,3.92
2019-03-24T16:18:54.292Z,3.80
2019-03-24T16:23:59.081Z,3.62
2019-03-24T16:29:04.049Z,3.00
2019-03-24T16:34:08.866Z,3.33
2019-03-24T16:39:13.678Z,3.50
2019-03-24T16:44:18.431Z,3.02
2019-03-24T16:49:23.160Z,4.20
2019-03-24T16:54:27.926Z,3.08
2019-03-24T16:59:32.692Z,3.45
2019-03-24T17:04:37.496Z,2.22
2019-03-24T17:09:42.297Z,1.70
2019-03-24T17:14:47.084Z,1.80
2019-03-24T17:19:51.863Z,2.02
2019-03-24T17:24:56.635Z,1.98
2019-03-24T17:30:01.546Z,2.08
2019-03-24T17:35:07.969Z,2.08
2019-03-24T17:40:13.333Z,2.45
2019-03-24T17:45:18.387Z,1.90
2019-03-24T17:50:23.132Z,2.40
2019-03-24T17:55:30.776Z,2.37
2019-03-24T18:00:43.361Z,2.33
2019-03-24T18:05:48.799Z,2.30
2019-03-24T18:10:53.666Z,2.60
2019-03-24T18:15:58.567Z,2.02
2019-03-24T18:21:03.513Z,2.77
2019-03-24T18:26:08.511Z,2.27
2019-03-24T18:31:13.590Z,2.40
2019-03-24T18:36:18.356Z,2.25
2019-03-24T18:41:23.310Z,4.05
2019-03-24T18:46:28.141Z,2.80
2019-03-24T18:51:33.079Z,2.75
2019-03-24T18:56:38.108Z,3.08
2019-03-24T19:01:44.920Z,2.95
2019-03-24T19:06:49.774Z,2.85
2019-03-24T19:11:54.646Z,2.55
2019-03-24T19:16:59.516Z,3.67
2019-03-24T19:22:04.402Z,2.60
2019-03-24T19:27:09.271Z,3.02
2019-03-24T19:32:14.225Z,3.80
2019-03-24T19:37:20.414Z,2.87
2019-03-24T19:42:25.380Z,6.30
2019-03-24T19:47:32.335Z,2.92
2019-03-24T19:52:44.696Z,3.00
2019-03-24T19:57:43.976Z,3.37
2019-03-24T20:02:48.785Z,3.08
2019-03-24T20:07:53.656Z,3.37
2019-03-24T20:12:58.592Z,3.58
2019-03-24T20:18:03.358Z,4.22
2019-03-24T20:23:08.242Z,3.60
2019-03-24T20:28:13.261Z,3.83
2019-03-24T20:33:18.180Z,3.07
2019-03-24T20:38:23.093Z,3.20
2019-03-24T20:43:27.840Z,3.08
2019-03-24T20:48:32.694Z,3.70
2019-03-24T20:53:37.557Z,3.40
2019-03-24T20:58:42.449Z,3.60
2019-03-24T21:03:47.272Z,3.65
2019-03-24T21:08:52.106Z,3.27
2019-03-24T21:13:56.922Z,3.55
2019-03-24T21:19:01.702Z,3.67
2019-03-24T21:24:06.591Z,3.13
2019-03-24T21:29:11.445Z,3.00
2019-03-24T21:34:16.466Z,3.00
2019-03-24T21:39:21.352Z,3.20
2019-03-24T21:44:26.328Z,2.70
2019-03-24T21:49:31.087Z,2.70
2019-03-24T21:54:35.836Z,2.53
2019-03-24T21:59:40.618Z,1.97
2019-03-24T22:04:45.344Z,2.60
2019-03-24T22:09:50.067Z,2.30
2019-03-24T22:14:54.776Z,2.90
2019-03-24T22:19:59.526Z,2.20
2019-03-24T22:25:04.331Z,2.07
2019-03-24T22:30:09.689Z,2.23
2019-03-24T22:35:14.551Z,2.27
2019-03-24T22:40:19.371Z,2.35
2019-03-24T22:45:24.142Z,2.85
2019-03-24T22:50:28.984Z,2.77
2019-03-24T22:55:33.728Z,2.90
2019-03-24T23:00:47.129Z,3.03
2019-03-24T23:05:51.950Z,3.40
2019-03-24T23:10:56.708Z,3.17
2019-03-24T23:16:01.415Z,2.80
2019-03-24T23:21:06.495Z,3.20
2019-03-24T23:26:11.546Z,2.93
2019-03-24T23:31:17.910Z,3.40
2019-03-24T23:36:22.624Z,3.30
2019-03-24T23:41:27.331Z,3.50
2019-03-24T23:46:32.592Z,2.90
2019-03-24T23:51:37.308Z,2.90
2019-03-24T23:56:42.057Z,3.17
